createdAt,value
2018-05-31T00:00:09.511Z,94.72
2018-05-31T00:02:38.510Z,95.06
2018-05-31T00:05:07.519Z,94.55
2018-05-31T00:07:36.513Z,93.98
2018-05-31T00:10:04.753Z,94.12
2018-05-31T00:12:32.986Z,93.03
2018-05-31T00:15:01.230Z,92.93
2018-05-31T00:17:30.221Z,93.30
2018-05-31T00:19:58.486Z,93.55
2018-05-31T00:22:27.495Z,94.73
2018-05-31T00:24:56.522Z,93.90
2018-05-31T00:27:24.756Z,93.79
2018-05-31T00:29:53.011Z,92.95
2018-05-31T00:32:21.251Z,92.67
2018-05-31T00:34:50.269Z,93.41
2018-05-31T00:37:19.271Z,92.52
2018-05-31T00:39:48.309Z,91.92
2018-05-31T00:42:16.548Z,91.82
2018-05-31T00:44:44.803Z,91.36
2018-05-31T00:47:13.021Z,91.12
2018-05-31T00:49:42.023Z,91.16
2018-05-31T00:52:11.102Z,90.99
2018-05-31T00:54:39.339Z,91.28
2018-05-31T00:57:07.591Z,90.73
2018-05-31T00:59:35.834Z,90.81
2018-05-31T01:02:04.899Z,90.27
2018-05-31T01:04:33.147Z,89.74
2018-05-31T01:07:01.418Z,90.19
2018-05-31T01:09:30.421Z,91.20
2018-05-31T01:11:59.457Z,91.32
2018-05-31T01:14:28.427Z,91.46
2018-05-31T01:16:57.485Z,92.41
2018-05-31T01:19:25.731Z,92.72
2018-05-31T01:21:54.752Z,92.97
2018-05-31T01:24:23.000Z,93.29
2018-05-31T01:26:51.263Z,94.19
2018-05-31T01:29:19.503Z,95.46
2018-05-31T01:31:48.488Z,96.19
2018-05-31T01:34:16.724Z,96.09
2018-05-31T01:36:44.980Z,96.19
2018-05-31T01:39:18.170Z,96.94
2018-05-31T01:41:46.423Z,97.53
2018-05-31T01:44:14.670Z,97.68
2018-05-31T01:46:43.692Z,97.00
2018-05-31T01:49:11.930Z,97.40
2018-05-31T01:51:40.183Z,96.16
2018-05-31T01:54:08.437Z,95.66
2018-05-31T01:56:37.498Z,95.84
2018-05-31T01:59:05.728Z,95.85
2018-05-31T02:01:33.990Z,95.66
2018-05-31T02:04:02.215Z,94.53
2018-05-31T02:06:31.243Z,94.63
2018-05-31T02:08:59.504Z,94.04
2018-05-31T02:11:27.734Z,94.28
2018-05-31T02:13:56.023Z,94.35
2018-05-31T02:16:24.260Z,94.98
2018-05-31T02:18:52.523Z,94.65
2018-05-31T02:21:20.721Z,94.44
2018-05-31T02:23:49.767Z,94.44
2018-05-31T02:26:18.767Z,94.64
2018-05-31T02:28:47.792Z,94.07
2018-05-31T02:31:16.031Z,93.76
2018-05-31T02:33:44.297Z,92.36
2018-05-31T02:36:12.508Z,92.31
2018-05-31T02:38:41.558Z,92.46
2018-05-31T02:41:09.810Z,93.11
2018-05-31T02:43:38.115Z,93.74
2018-05-31T02:46:07.091Z,93.78
2018-05-31T02:48:36.112Z,94.25
2018-05-31T02:51:05.139Z,95.43
2018-05-31T02:53:34.154Z,95.63
2018-05-31T02:56:03.164Z,95.98
2018-05-31T02:58:32.190Z,95.83
2018-05-31T03:01:00.431Z,96.25
2018-05-31T03:03:30.049Z,96.32
2018-05-31T03:05:58.252Z,97.06
2018-05-31T03:08:26.563Z,97.48
2018-05-31T03:10:54.812Z,96.85
2018-05-31T03:13:23.072Z,97.01
2018-05-31T03:15:51.273Z,96.89
2018-05-31T03:18:20.318Z,96.44
2018-05-31T03:20:49.331Z,96.12
2018-05-31T03:23:18.313Z,96.16
2018-05-31T03:25:46.559Z,96.43
2018-05-31T03:28:14.831Z,96.62
2018-05-31T03:30:43.044Z,96.70
2018-05-31T03:33:11.318Z,96.71
2018-05-31T03:35:39.578Z,97.07
2018-05-31T03:38:08.585Z,97.12
2018-05-31T03:40:37.612Z,96.94
2018-05-31T03:43:05.828Z,96.33
2018-05-31T03:45:34.123Z,95.32
2018-05-31T03:48:02.399Z,95.25
2018-05-31T03:50:30.646Z,95.39
2018-05-31T03:52:59.642Z,95.37
2018-05-31T03:55:28.666Z,95.67
2018-05-31T03:57:56.910Z,95.41
2018-05-31T04:00:25.175Z,95.08
2018-05-31T04:02:53.419Z,94.78
2018-05-31T04:05:21.671Z,94.73
2018-05-31T04:07:49.922Z,94.04
2018-05-31T04:10:18.172Z,93.40
2018-05-31T04:12:46.370Z,93.35
2018-05-31T04:15:14.663Z,92.42
2018-05-31T04:17:43.686Z,91.74
2018-05-31T04:20:12.699Z,90.90
2018-05-31T04:22:40.949Z,90.70
2018-05-31T04:25:09.203Z,90.16
2018-05-31T04:27:37.443Z,90.85
2018-05-31T04:30:06.470Z,90.23
2018-05-31T04:32:34.711Z,90.41
2018-05-31T04:35:02.960Z,90.22
2018-05-31T04:37:31.191Z,89.62
2018-05-31T04:39:59.460Z,89.44
2018-05-31T04:42:27.705Z,88.43
2018-05-31T04:44:56.724Z,87.98
2018-05-31T04:47:24.963Z,82.93
2018-05-31T04:49:53.227Z,83.36
2018-05-31T04:52:21.463Z,79.13
2018-05-31T04:54:50.462Z,72.88
2018-05-31T04:57:19.482Z,69.70
2018-05-31T04:59:48.580Z,65.99
2018-05-31T05:02:17.607Z,65.49
2018-05-31T05:04:45.848Z,65.76
2018-05-31T05:07:14.101Z,64.95
2018-05-31T05:09:42.339Z,65.77
2018-05-31T05:12:10.586Z,63.11
2018-05-31T05:14:38.818Z,63.55
2018-05-31T05:17:07.075Z,62.36
2018-05-31T05:19:35.315Z,62.65
2018-05-31T05:22:04.331Z,62.17
2018-05-31T05:24:32.566Z,62.81
2018-05-31T05:27:00.863Z,61.60
2018-05-31T05:29:29.036Z,63.48
2018-05-31T05:31:57.303Z,62.49
2018-05-31T05:34:25.543Z,63.26
2018-05-31T05:36:53.796Z,65.08
2018-05-31T05:39:22.040Z,62.16
2018-05-31T05:41:50.295Z,61.75
2018-05-31T05:44:18.535Z,62.17
2018-05-31T05:46:46.799Z,65.57
2018-05-31T05:49:15.803Z,62.70
2018-05-31T05:51:44.829Z,61.32
2018-05-31T05:54:13.135Z,63.15
2018-05-31T05:56:41.423Z,64.10
2018-05-31T05:59:09.723Z,64.36
2018-05-31T06:01:37.975Z,64.54
2018-05-31T06:04:06.979Z,64.17
2018-05-31T06:06:36.014Z,62.96
2018-05-31T06:09:04.247Z,62.81
2018-05-31T06:11:32.519Z,62.96
2018-05-31T06:14:00.776Z,62.58
2018-05-31T06:16:29.090Z,63.80
2018-05-31T06:18:57.625Z,64.00
2018-05-31T06:21:26.339Z,61.82
2018-05-31T06:23:55.368Z,59.84
2018-05-31T06:26:23.677Z,61.62
2018-05-31T06:28:51.867Z,60.31
2018-05-31T06:31:20.079Z,59.82
2018-05-31T06:33:49.147Z,60.01
2018-05-31T06:36:17.398Z,60.75
2018-05-31T06:38:46.423Z,60.00
2018-05-31T06:41:15.431Z,59.64
2018-05-31T06:43:43.703Z,56.29
2018-05-31T06:46:12.689Z,58.59
2018-05-31T06:48:41.775Z,59.11
2018-05-31T06:51:10.012Z,57.83
2018-05-31T06:53:39.031Z,60.32
2018-05-31T06:56:07.271Z,61.35
2018-05-31T06:58:35.528Z,61.61
2018-05-31T07:01:03.760Z,58.38
2018-05-31T07:03:32.028Z,59.19
2018-05-31T07:06:00.267Z,57.62
2018-05-31T07:08:29.288Z,59.40
2018-05-31T07:10:58.300Z,58.35
2018-05-31T07:13:26.567Z,59.12
2018-05-31T07:15:55.625Z,59.76
2018-05-31T07:18:23.842Z,57.25
2018-05-31T07:20:52.069Z,60.65
2018-05-31T07:23:20.373Z,61.38
2018-05-31T07:25:49.391Z,58.73
2018-05-31T07:28:17.641Z,61.18
2018-05-31T07:30:46.649Z,56.73
2018-05-31T07:33:15.665Z,57.30
2018-05-31T07:35:44.665Z,58.01
2018-05-31T07:38:12.924Z,58.18
2018-05-31T07:40:41.895Z,59.88
2018-05-31T07:43:10.183Z,58.80
2018-05-31T07:45:38.419Z,59.57
2018-05-31T07:48:07.443Z,57.02
2018-05-31T07:50:35.679Z,57.35
2018-05-31T07:53:03.940Z,56.17
2018-05-31T07:55:32.183Z,55.33
2018-05-31T07:58:00.424Z,55.03
2018-05-31T08:00:28.666Z,54.39
2018-05-31T08:02:57.675Z,55.68
2018-05-31T08:05:26.714Z,55.77
2018-05-31T08:07:54.968Z,54.75
2018-05-31T08:10:23.996Z,54.45
2018-05-31T08:12:52.244Z,54.19
2018-05-31T08:15:20.515Z,54.77
2018-05-31T08:17:48.763Z,54.98
2018-05-31T08:20:17.011Z,53.18
2018-05-31T08:22:45.250Z,53.93
2018-05-31T08:25:13.504Z,52.69
2018-05-31T08:27:42.360Z,51.10
2018-05-31T08:30:10.604Z,50.78
2018-05-31T08:32:39.619Z,49.37
2018-05-31T08:35:08.643Z,49.74
2018-05-31T08:37:36.916Z,48.11
2018-05-31T08:40:05.962Z,50.40
2018-05-31T08:42:34.231Z,49.61
2018-05-31T08:45:02.508Z,51.45
2018-05-31T08:47:30.781Z,50.13
2018-05-31T08:49:59.047Z,50.60
2018-05-31T08:52:27.344Z,46.96
2018-05-31T08:54:55.671Z,48.87
2018-05-31T08:57:24.692Z,47.46
2018-05-31T08:59:53.703Z,46.81
2018-05-31T09:02:21.978Z,45.50
2018-05-31T09:04:50.265Z,45.85
2018-05-31T09:07:18.507Z,44.85
2018-05-31T09:09:46.775Z,45.70
2018-05-31T09:12:15.028Z,46.60
2018-05-31T09:14:44.791Z,46.52
2018-05-31T09:17:13.049Z,45.58
2018-05-31T09:19:41.295Z,47.13
2018-05-31T09:22:09.607Z,45.95
2018-05-31T09:24:38.665Z,44.88
2018-05-31T09:27:06.954Z,44.28
2018-05-31T09:29:35.221Z,44.48
2018-05-31T09:32:03.483Z,44.36
2018-05-31T09:34:32.532Z,46.23
2018-05-31T09:37:00.776Z,45.42
2018-05-31T09:39:29.798Z,46.01
2018-05-31T09:41:58.079Z,47.22
2018-05-31T09:44:26.339Z,45.49
2018-05-31T09:46:54.638Z,44.78
2018-05-31T09:49:23.753Z,46.56
2018-05-31T09:51:52.787Z,45.73
2018-05-31T09:54:21.034Z,44.68
2018-05-31T09:56:50.093Z,46.43
2018-05-31T09:59:18.349Z,45.97
2018-05-31T10:01:47.400Z,43.45
2018-05-31T10:04:15.668Z,45.48
2018-05-31T10:06:43.936Z,44.91
2018-05-31T10:09:12.447Z,44.28
2018-05-31T10:11:40.669Z,43.30
2018-05-31T10:14:09.731Z,43.92
2018-05-31T10:16:38.759Z,44.75
2018-05-31T10:19:06.977Z,44.90
2018-05-31T10:21:36.163Z,45.51
2018-05-31T10:24:04.413Z,45.67
2018-05-31T10:26:32.724Z,47.31
2018-05-31T10:29:01.017Z,48.16
2018-05-31T10:31:30.122Z,47.31
2018-05-31T10:33:59.148Z,46.95
2018-05-31T10:36:27.437Z,45.69
2018-05-31T10:38:55.799Z,47.88
2018-05-31T10:41:24.821Z,45.54
2018-05-31T10:43:53.091Z,45.70
2018-05-31T10:46:22.534Z,45.87
2018-05-31T10:48:52.229Z,43.91
2018-05-31T10:51:20.475Z,44.14
2018-05-31T10:53:49.561Z,43.26
2018-05-31T10:56:18.091Z,46.49
2018-05-31T10:58:46.364Z,44.98
2018-05-31T11:01:15.757Z,43.50
2018-05-31T11:03:44.054Z,43.51
2018-05-31T11:06:12.314Z,42.37
2018-05-31T11:08:41.942Z,42.00
2018-05-31T11:11:10.927Z,42.91
2018-05-31T11:13:40.054Z,40.15
2018-05-31T11:16:08.324Z,41.22
2018-05-31T11:18:37.371Z,39.92
2018-05-31T11:21:05.649Z,41.09
2018-05-31T11:23:33.979Z,40.54
2018-05-31T11:26:02.267Z,41.24
2018-05-31T11:28:30.535Z,40.43
2018-05-31T11:30:58.822Z,39.70
2018-05-31T11:33:27.097Z,40.23
2018-05-31T11:35:55.376Z,40.04
2018-05-31T11:38:23.635Z,39.73
2018-05-31T11:40:51.908Z,38.95
2018-05-31T11:43:20.183Z,40.30
2018-05-31T11:45:48.521Z,41.07
2018-05-31T11:48:16.844Z,39.73
2018-05-31T11:50:45.067Z,40.46
2018-05-31T11:53:14.127Z,41.64
2018-05-31T11:55:42.391Z,38.85
2018-05-31T11:58:11.471Z,40.34
2018-05-31T12:00:39.739Z,40.12
2018-05-31T12:03:08.007Z,40.69
2018-05-31T12:05:36.299Z,38.69
2018-05-31T12:08:04.545Z,39.58
2018-05-31T12:10:32.837Z,39.80
2018-05-31T12:13:01.096Z,39.84
2018-05-31T12:15:29.475Z,39.59
2018-05-31T12:17:58.570Z,38.83
2018-05-31T12:20:26.872Z,38.53
2018-05-31T12:22:55.156Z,39.05
2018-05-31T12:25:23.427Z,37.06
2018-05-31T12:27:51.699Z,38.91
2018-05-31T12:30:20.812Z,38.14
2018-05-31T12:32:49.812Z,39.47
2018-05-31T12:35:18.115Z,39.39
2018-05-31T12:37:46.453Z,39.68
2018-05-31T12:40:14.759Z,37.75
2018-05-31T12:42:43.020Z,36.51
2018-05-31T12:45:11.231Z,36.74
2018-05-31T12:47:39.528Z,36.44
2018-05-31T12:50:08.572Z,36.53
2018-05-31T12:52:36.870Z,35.62
2018-05-31T12:55:05.174Z,37.55
2018-05-31T12:57:33.448Z,41.92
2018-05-31T13:00:01.721Z,38.97
2018-05-31T13:02:29.997Z,40.36
2018-05-31T13:04:59.031Z,40.47
2018-05-31T13:07:27.308Z,39.35
2018-05-31T13:09:55.594Z,40.54
2018-05-31T13:12:23.861Z,44.35
2018-05-31T13:14:52.963Z,47.25
2018-05-31T13:17:21.238Z,49.45
2018-05-31T13:19:49.545Z,50.01
2018-05-31T13:22:17.820Z,49.67
2018-05-31T13:24:47.114Z,49.95
2018-05-31T13:27:15.383Z,49.51
2018-05-31T13:29:43.637Z,51.09
2018-05-31T13:32:12.678Z,50.65
2018-05-31T13:34:40.922Z,51.09
2018-05-31T13:37:09.167Z,51.61
2018-05-31T13:39:37.441Z,51.70
2018-05-31T13:42:05.667Z,51.97
2018-05-31T13:44:34.710Z,51.86
2018-05-31T13:47:03.805Z,51.11
2018-05-31T13:49:32.046Z,53.24
2018-05-31T13:52:00.335Z,53.40
2018-05-31T13:54:28.574Z,52.86
2018-05-31T13:56:56.864Z,54.05
2018-05-31T13:59:25.900Z,53.75
2018-05-31T14:01:55.697Z,53.84
2018-05-31T14:04:24.016Z,54.76
2018-05-31T14:06:52.271Z,55.33
2018-05-31T14:09:20.535Z,56.78
2018-05-31T14:11:48.761Z,57.99
2018-05-31T14:14:17.006Z,58.81
2018-05-31T14:16:46.036Z,58.64
2018-05-31T14:19:14.331Z,58.87
2018-05-31T14:21:42.595Z,59.88
2018-05-31T14:24:10.836Z,59.89
2018-05-31T14:26:39.102Z,59.30
2018-05-31T14:29:07.347Z,60.16
2018-05-31T14:31:35.636Z,62.95
2018-05-31T14:34:03.893Z,62.12
2018-05-31T14:36:32.147Z,60.36
2018-05-31T14:39:00.443Z,58.65
2018-05-31T14:41:28.674Z,54.12
2018-05-31T14:43:56.975Z,53.86
2018-05-31T14:46:25.230Z,55.38
2018-05-31T14:48:54.271Z,55.42
2018-05-31T14:51:22.464Z,56.49
2018-05-31T14:53:50.793Z,57.10
2018-05-31T14:56:19.080Z,58.66
2018-05-31T14:58:47.360Z,57.02
2018-05-31T15:01:15.570Z,57.38
2018-05-31T15:06:19.204Z,54.22
2018-05-31T15:08:47.504Z,54.44
2018-05-31T15:11:16.518Z,54.60
2018-05-31T15:13:45.542Z,55.66
2018-05-31T15:16:13.798Z,56.62
2018-05-31T15:18:42.093Z,58.00
2018-05-31T15:21:10.338Z,56.52
2018-05-31T15:23:38.616Z,55.77
2018-05-31T15:26:06.858Z,53.85
2018-05-31T15:28:36.651Z,51.64
2018-05-31T15:31:04.903Z,51.51
2018-05-31T15:33:33.159Z,50.35
2018-05-31T15:36:01.482Z,51.29
2018-05-31T15:38:29.707Z,49.70
2018-05-31T15:40:57.999Z,51.63
2018-05-31T15:43:26.362Z,50.35
2018-05-31T15:45:54.622Z,50.97
2018-05-31T15:48:24.011Z,52.22
2018-05-31T15:50:52.263Z,51.55
2018-05-31T15:53:20.566Z,51.53
2018-05-31T15:55:48.807Z,52.65
2018-05-31T15:58:17.079Z,51.96
2018-05-31T16:00:46.103Z,52.13
2018-05-31T16:03:14.358Z,51.67
2018-05-31T16:05:42.665Z,52.20
2018-05-31T16:08:10.914Z,52.23
2018-05-31T16:10:39.223Z,52.52
2018-05-31T16:13:07.491Z,53.53
2018-05-31T16:15:35.776Z,52.38
2018-05-31T16:18:04.784Z,53.16
2018-05-31T16:20:33.051Z,55.78
2018-05-31T16:23:01.316Z,54.59
2018-05-31T16:25:30.382Z,54.72
2018-05-31T16:27:58.891Z,54.53
2018-05-31T16:30:28.690Z,54.26
2018-05-31T16:32:56.970Z,53.33
2018-05-31T16:35:25.240Z,54.29
2018-05-31T16:37:53.506Z,52.80
2018-05-31T16:40:22.584Z,53.38
2018-05-31T16:42:50.908Z,52.88
2018-05-31T16:45:20.560Z,53.48
2018-05-31T16:47:48.800Z,52.98
2018-05-31T16:50:17.077Z,51.57
2018-05-31T16:52:45.323Z,48.65
2018-05-31T16:55:13.651Z,48.87
2018-05-31T16:57:42.274Z,48.14
2018-05-31T17:00:11.315Z,48.15
2018-05-31T17:02:39.591Z,47.74
2018-05-31T17:05:07.880Z,48.71
2018-05-31T17:07:36.109Z,49.06
2018-05-31T17:10:05.197Z,46.47
2018-05-31T17:12:33.411Z,45.51
2018-05-31T17:15:02.480Z,43.72
2018-05-31T17:17:30.757Z,44.62
2018-05-31T17:19:59.780Z,47.02
2018-05-31T17:22:28.039Z,49.51
2018-05-31T17:24:56.331Z,50.33
2018-05-31T17:27:25.385Z,50.26
2018-05-31T17:29:53.681Z,50.97
2018-05-31T17:32:21.924Z,50.31
2018-05-31T17:34:50.270Z,49.88
2018-05-31T17:37:18.538Z,51.64
2018-05-31T17:39:46.811Z,52.88
2018-05-31T17:42:15.075Z,53.08
2018-05-31T17:44:44.506Z,54.19
2018-05-31T17:47:12.762Z,54.18
2018-05-31T17:49:41.033Z,54.97
2018-05-31T17:52:09.283Z,55.14
2018-05-31T17:54:37.576Z,55.81
2018-05-31T17:57:05.841Z,56.97
2018-05-31T17:59:34.887Z,57.11
2018-05-31T18:02:03.146Z,57.18
2018-05-31T18:04:31.386Z,58.15
2018-05-31T18:06:59.655Z,58.28
2018-05-31T18:09:27.963Z,58.90
2018-05-31T18:11:56.240Z,58.80
2018-05-31T18:14:25.390Z,59.33
2018-05-31T18:16:53.721Z,59.53
2018-05-31T18:19:22.073Z,59.64
2018-05-31T18:21:51.846Z,59.90
2018-05-31T18:24:20.070Z,59.47
2018-05-31T18:26:48.371Z,59.55
2018-05-31T18:29:17.989Z,59.85
2018-05-31T18:31:46.264Z,60.44
2018-05-31T18:34:14.493Z,59.94
2018-05-31T18:36:44.431Z,59.57
2018-05-31T18:39:12.684Z,59.88
2018-05-31T18:41:42.456Z,59.87
2018-05-31T18:44:10.728Z,60.17
2018-05-31T18:46:38.991Z,60.83
2018-05-31T18:49:08.017Z,60.57
2018-05-31T18:51:37.072Z,60.92
2018-05-31T18:54:05.343Z,61.32
2018-05-31T18:56:33.609Z,61.45
2018-05-31T18:59:01.862Z,62.07
2018-05-31T19:01:30.211Z,63.20
2018-05-31T19:03:58.444Z,63.74
2018-05-31T19:06:26.727Z,63.89
2018-05-31T19:08:54.991Z,64.05
2018-05-31T19:11:23.277Z,63.21
2018-05-31T19:13:57.152Z,63.63
2018-05-31T19:16:26.197Z,64.05
2018-05-31T19:18:59.893Z,64.25
2018-05-31T19:21:28.178Z,64.30
2018-05-31T19:23:56.502Z,64.49
2018-05-31T19:26:24.773Z,64.96
2018-05-31T19:28:53.079Z,64.97
2018-05-31T19:31:21.367Z,65.50
2018-05-31T19:33:49.599Z,65.68
2018-05-31T19:36:24.469Z,65.45
2018-05-31T19:38:52.734Z,65.70
2018-05-31T19:41:21.798Z,65.89
2018-05-31T19:43:55.504Z,66.18
2018-05-31T19:46:23.875Z,66.75
2018-05-31T19:48:52.265Z,67.03
2018-05-31T19:51:26.077Z,67.52
2018-05-31T19:53:54.335Z,67.72
2018-05-31T19:56:22.616Z,68.11
2018-05-31T19:58:56.455Z,67.92
2018-05-31T20:01:31.123Z,68.00
2018-05-31T20:03:59.374Z,68.48
2018-05-31T20:06:28.388Z,69.02
2018-05-31T20:08:56.784Z,69.75
2018-05-31T20:11:25.900Z,69.90
2018-05-31T20:13:54.917Z,70.69
2018-05-31T20:16:23.171Z,70.61
2018-05-31T20:18:51.404Z,70.67
2018-05-31T20:21:20.490Z,70.30
2018-05-31T20:23:49.502Z,70.11
2018-05-31T20:26:18.528Z,70.42
2018-05-31T20:28:46.798Z,70.76
2018-05-31T20:31:16.609Z,70.56
2018-05-31T20:33:46.400Z,70.40
2018-05-31T20:36:14.712Z,70.41
2018-05-31T20:38:43.086Z,70.90
2018-05-31T20:41:11.290Z,70.92
2018-05-31T20:43:40.341Z,70.39
2018-05-31T20:46:08.581Z,70.37
2018-05-31T20:48:36.858Z,70.40
2018-05-31T20:51:05.904Z,70.73
2018-05-31T20:53:34.131Z,70.59
2018-05-31T20:56:02.375Z,71.03
2018-05-31T20:58:31.403Z,71.37
2018-05-31T21:00:59.632Z,71.54
2018-05-31T21:03:27.853Z,71.14
2018-05-31T21:05:56.148Z,71.39
2018-05-31T21:08:25.173Z,71.62
2018-05-31T21:10:53.415Z,71.63
2018-05-31T21:13:21.680Z,72.07
2018-05-31T21:15:49.915Z,72.16
2018-05-31T21:18:18.900Z,73.05
2018-05-31T21:20:47.901Z,72.88
2018-05-31T21:23:16.964Z,72.81
2018-05-31T21:25:46.035Z,72.56
2018-05-31T21:28:15.156Z,72.15
2018-05-31T21:30:44.171Z,71.91
2018-05-31T21:33:13.188Z,71.80
2018-05-31T21:35:41.489Z,71.55
2018-05-31T21:38:09.694Z,71.65
2018-05-31T21:40:38.706Z,71.74
2018-05-31T21:43:06.956Z,71.33
2018-05-31T21:45:35.190Z,72.07
2018-05-31T21:48:03.426Z,71.95
2018-05-31T21:50:31.680Z,71.62
2018-05-31T21:52:59.892Z,71.47
2018-05-31T21:55:28.201Z,71.74
2018-05-31T21:57:56.436Z,73.15
2018-05-31T22:03:31.343Z,76.89
2018-05-31T22:05:59.551Z,68.83
2018-05-31T22:08:27.867Z,71.59
2018-05-31T22:10:56.113Z,75.56
2018-05-31T22:13:25.876Z,78.18
2018-05-31T22:15:54.119Z,78.86
2018-05-31T22:18:23.722Z,83.84
2018-05-31T22:20:51.957Z,82.66
2018-05-31T22:23:20.210Z,85.22
2018-05-31T22:25:48.447Z,86.77
2018-05-31T22:28:16.652Z,88.06
2018-05-31T22:30:44.951Z,89.01
2018-05-31T22:33:13.163Z,90.07
2018-05-31T22:35:41.460Z,91.74
2018-05-31T22:38:09.690Z,91.53
2018-05-31T22:40:37.943Z,92.45
2018-05-31T22:43:07.700Z,93.48
2018-05-31T22:45:35.998Z,91.83
2018-05-31T22:48:04.231Z,92.88
2018-05-31T22:50:32.475Z,92.40
2018-05-31T22:53:01.471Z,91.98
2018-05-31T22:55:30.495Z,92.32
2018-05-31T22:57:58.730Z,93.25
2018-05-31T23:00:27.754Z,94.35
2018-05-31T23:02:56.058Z,93.17
2018-05-31T23:05:24.264Z,93.69
2018-05-31T23:07:52.495Z,93.54
2018-05-31T23:10:20.751Z,95.56
2018-05-31T23:12:48.991Z,94.80
2018-05-31T23:15:18.011Z,95.01
2018-05-31T23:17:46.245Z,95.64
2018-05-31T23:20:14.512Z,97.12
2018-05-31T23:22:43.883Z,97.85
2018-05-31T23:25:12.903Z,96.36
2018-05-31T23:27:42.251Z,96.25
2018-05-31T23:30:11.319Z,94.41
2018-05-31T23:32:40.327Z,93.57
2018-05-31T23:35:09.343Z,94.45
2018-05-31T23:37:37.578Z,95.35
2018-05-31T23:40:05.827Z,95.16
2018-05-31T23:42:34.068Z,95.52
2018-05-31T23:45:02.331Z,95.14
2018-05-31T23:47:30.615Z,95.20
2018-05-31T23:49:59.570Z,93.92
2018-05-31T23:52:27.819Z,96.10
2018-05-31T23:54:56.828Z,95.78
2018-05-31T23:57:25.083Z,95.53
2018-05-31T23:59:53.322Z,96.24
